x

Tanner Bank - 121nm West Of San Diego, Ca (46047) Wave Buoy

8:50 - Mon 1st Jun 2015 All times are PDT. -7 hours from GMT.

  • Sig Wave height 4.3ft
  • Swell Direction
  • Peak Period 11s
  • Average Period 5s
  • Wind
    18mph, 20mph gusts
  • Sea Temp 60°f
  • Luft Temp 60°f
  • Sea Pressure 1016.2mb
  • Tanner Bank - 121nm West Of San Diego, Ca
  • Tanner Bank - 121nm West Of San Diego, Ca

More Historic Weather Station data

Upgrade to MSW Pro to gain access to the past 30 days of data for over 8000 Wavebouys and Weather Stations around the globe.

Join Pro

Comparision Forecast

View Surf forecast
   
Mo 06/01 8:50 4.5ft 11s 5s 18 20 mph 1016.2mb 60f 60f
7:50 4.5ft 13s 5s 18 20 mph 1016.4mb 61f 60f
6:50 4.5ft 12s 5s 18 20 mph 1016.2mb 61f 60f
5:50 4.5ft 12s 5s 16 20 mph 1016.4mb 61f 59f
4:50 4.5ft 11s 5s 18 22 mph 1016.4mb 61f 59f
3:50 4.5ft 13s 5s 16 18 mph 1017.2mb 61f 59f
2:50 4.5ft 13s 6s 16 20 mph 1017.5mb 61f 59f
1:50 4.5ft 12s 6s 16 20 mph 1017.5mb 60f 59f
12:50 4.5ft 13s 6s 13 18 mph 1017.6mb 60f 59f
11:50  -   -   -  13 18 mph 1017.5mb 60f 59f
10:50 5ft 13s 6s 13 16 mph 1017.2mb 60f 58f
9:50 5ft 12s 7s 13 18 mph 1017mb 60f 58f
8:50 4.5ft 12s 6s 11 16 mph 1017mb 60f 58f
7:50 4.5ft 14s 6s 11 16 mph 1016.4mb 60f 58f
6:50 4.5ft 13s 6s 13 18 mph 1016.2mb 60f 57f
5:50 4.5ft 14s 6s 13 18 mph 1015.7mb 60f 58f
4:50 4.5ft 13s 6s 13 20 mph 1015.4mb 60f 58f
3:50  -   -   -  13 20 mph 1015.5mb 60f 58f
2:50 3.5ft 13s 5s 16 18 mph 1015.4mb 60f 58f
1:50 4ft 11s 6s 13 18 mph 1015.4mb 60f 58f
12:50 4.5ft 12s 6s 13 18 mph 1015.6mb 60f 58f
So 05/31 11:50 4ft 13s 5s 13 18 mph 1015.8mb 61f 59f
10:50  -   -   -  16
mph
- - -
9:50 4.5ft 13s 6s 16 18 mph 1015.1mb 60f 59f
8:50 3.5ft 15s 6s 13 18 mph 1014.6mb 60f 59f
7:50 3.5ft 14s 5s 16 18 mph 1014.3mb 61f 59f
6:50 3.5ft 15s 6s 13 18 mph 1014.1mb 61f 59f
5:50 3.5ft 15s 6s 13 16 mph 1014mb 61f 59f
4:50 3.5ft 15s 6s 13 16 mph 1014.2mb 61f 59f
3:50 3.5ft 15s 6s 13 16 mph 1014.5mb 61f 59f
2:50 3.5ft 13s 6s 11 13 mph 1015mb 61f 59f
1:50 3.5ft 14s 6s 11 13 mph 1015.5mb 61f 59f
12:50 3.5ft 14s 6s 11 13 mph 1015.6mb 60f 58f
11:50 3.5ft 14s 6s 9 11 mph 1015.6mb 60f 58f
10:50 4ft 15s 6s 9 11 mph 1015.9mb 60f 58f
9:50 3.5ft 15s 6s 7 11 mph 1015.4mb 60f 57f
8:50 4ft 14s 6s 9 13 mph 1015.3mb 60f 57f
7:50 3.5ft 16s 6s 9 11 mph 1014.7mb 60f 57f
6:50 4.5ft 14s 7s 11 16 mph 1014.2mb 60f 56f
5:50 4ft 14s 6s 11 16 mph 1013.7mb 60f 57f
4:50 3.5ft 15s 6s 11 13 mph 1013.4mb 60f 57f
3:50 3.5ft 12s 6s 13 18 mph 1013.4mb 60f 57f
2:50 3.5ft 14s 6s 11 13 mph 1013.9mb 60f 57f
1:50 4.5ft 14s 7s 9 13 mph 1014.1mb 60f 57f
12:50 4ft 15s 6s 11 13 mph 1014.1mb 60f 57f
Sa 05/30 11:50 4.5ft 12s 6s 7 11 mph 1014.6mb 61f 57f
10:50 4.5ft 16s 6s 11 16 mph 1014mb 61f 57f
9:50 4.5ft 12s 6s 13 16 mph 1013.3mb 61f 57f
8:50 4.5ft 14s 6s 11 16 mph 1012.8mb 61f 57f
7:50 4.5ft 13s 6s 13 18 mph 1012.5mb 61f 58f
6:50 4.5ft 13s 6s 13 18 mph 1012.2mb 61f 58f
5:50 4.5ft 15s 6s 13 16 mph 1012.8mb 61f 58f
4:50 4.5ft 15s 6s 13 18 mph 1013.6mb 61f 58f
3:50 4.5ft 16s 7s 13 16 mph 1014mb 61f 58f
2:50 4.5ft 14s 6s 9 13 mph 1014.4mb 61f 58f
1:50 4.5ft 13s 6s 9 11 mph 1015mb 61f 58f
12:50 4.5ft 13s 6s 7 9 mph 1015.3mb 61f 58f
11:50 4.5ft 13s 6s 7 9 mph 1015.6mb 61f 58f
10:50 4.5ft 14s 6s 7 9 mph 1015.7mb 61f 58f
9:50 4.5ft 13s 6s 11 16 mph 1015.3mb 61f 58f
8:50 5ft 15s 6s 13 18 mph 1014.9mb 61f 58f
7:50 5ft 15s 6s 16 20 mph 1014.7mb 61f 57f
6:50 5ft 15s 7s 13 16 mph 1014.4mb 61f 57f
5:50 5ft 14s 7s 9 11 mph 1013.3mb 61f 57f
4:50 5ft 15s 6s 9 11 mph 1013.2mb 60f 57f
3:50 5ft 15s 7s 9 13 mph 1013.3mb 60f 56f
2:50 5ft 15s 7s 9 13 mph 1013.1mb 60f 57f
1:50 5ft 13s 6s 7 11 mph 1013.7mb 60f 57f
12:50 5.5ft 15s 6s 9 11 mph 1014.1mb 60f 57f
Fr 05/29 11:50 5.5ft 13s 6s 11 16 mph 1014.3mb 60f 57f
10:50 5ft 13s 6s 16 22 mph 1014.1mb 60f 58f
9:50 5ft 14s 6s 16 20 mph 1013.8mb 60f 58f
8:50 5.5ft 12s 6s 16 18 mph 1013.7mb 60f 58f
7:50 5ft 15s 6s 18 20 mph 1012.8mb 60f 58f
6:50 5ft 15s 6s 18 22 mph 1012.9mb 60f 58f
5:50 5.5ft 15s 6s 18 22 mph 1013.1mb 60f 58f
4:50 5ft 15s 6s 18 20 mph 1013.3mb 60f 58f
3:50 5.5ft 12s 6s 16 20 mph 1013.7mb 60f 58f
2:50 6ft 15s 6s 16 20 mph 1014.4mb 60f 58f
1:50 5ft 13s 6s 16 18 mph 1014.7mb 60f 58f
12:50 5.5ft 7s 6s 13 16 mph 1015.3mb 60f 58f
11:50 6ft 8s 6s 16 18 mph 1015.3mb 60f 58f
10:50 6ft 16s 6s 13 18 mph 1015.3mb 60f 58f
9:50 6.5ft 14s 6s 13 18 mph 1015.2mb 60f 58f
8:50 6.5ft 13s 6s 16 18 mph 1015mb 60f 58f
7:50 6.5ft 14s 6s 16 18 mph 1014.9mb 60f 58f
6:50 6.5ft 13s 6s 16 20 mph 1014.7mb 60f 58f
5:50 6ft 13s 6s 18 22 mph 1014.2mb 60f 58f
4:50 6.5ft 15s 6s 16 20 mph 1014.1mb 60f 58f